Pagrindinis puslapis
METAR-TAF:

METAR-TAF

Oro uostai :

Albert Whitted Airport

St. Petersburg, Florida, Jungtinės Amerikos Valstijos

platuma: 27-46-04N, ilguma: 082-37-34W, Aukštis: 2 m

Dabartinis oras

Ataskaita buvo paskelbta 1 valandą ir 7 minutes, ne 11:53 UTC
Ramus vėjas
Temperatūra 29°C
Drėgmė 74%
Slėgis 1013 hPa
Matomumas: 16.1 km
Giedras dangus

METAR: KSPG 041153Z 00000KT 10SM CLR 29/24 A2992 RMK AO2 SLP133 T02890239 10294 20283 53010 $

Laikas: 09:00 (13:00 UTC)


TAF: trūkstamas

Orai ataskaitas ir orų prognozės (METAR, TAF).

turimą stotys yra geltonos ir raudonos taškus žemėlapyje.

Perkelti pele per norėdami pamatyti stoties vardą.

Tada spustelėkite, norėdami matyti oro stebėjimo ir prognozės.

Norėdami pakeisti žemėlapį: spustelėkite ant žalios mygtukų su juodo kryžiaus žemyn,; žalią mygtuką su brūkšneliu, jei norite nutolinti; arba žalių rodyklių gretimoms žemėlapius.


METAR-TAF: